메인 페이지
METAR-TAF:

METAR-TAF

공항 :

리가 국제공항

리가, 라트비아

위도: 56-55N, 경도: 023-58E, 고도: 10m

현재 날씨관측

예보는 16분 전, 18:20시(UTC)에 발표되었습니다.
북북서16kt, 순간 최대 풍속 30kt서북서풍과 풍을 오가는
온도 0°C
습도 59%
기압 1010 hPa
시정 10km 이상
고도 3400ft 상공 구름 보통
고도 3900ft 상공 구름 보통
고도 4600ft 상공 구름 많음

METAR: EVRA 201820Z 33016G30KT 290V360 9999 SCT034 SCT039 BKN046 M00/M07 Q1010 R36/190095 NOSIG

시각: 20:36 (18:36 UTC)

예보

예보는 1 시간 36분 전, 17:00시(UTC)에 발표되었습니다.
예보 대상 시간: 20일 18시부터 21일 18시까지 (UTC)
북서15kt, 순간 최대 풍속 25kt
시정 10km 이상
고도 1500ft 상공 구름 많음
일시적
20일 18시부터 20일 21시까지 (UTC)
북북서20kt, 순간 최대 풍속 33kt
일시적
20일 21시부터 21일 03시까지 (UTC)
북북서18kt, 순간 최대 풍속 30kt
전환 중
21일 03시부터 21일 05시까지 (UTC)
10kt

TAF: EVRA 201700Z 2018/2118 32015G25KT 9999 BKN015 TEMPO 2018/2021 34020G33KT TEMPO 2021/2103 34018G30KT BECMG 2103/2105 36010KT

4,000개 이상의 공항 관측 자료 및 예보 (METAR 및 TAF 보고).

지도상에서 검색 가능한 기상관측소가 노란 점과 빨간 점으로 표시되어 있습니다.

기상관측소 명을 보려면 표시 위로 마우스를 이동하세요.

날씨 관측과 예보를 보려면 클릭하세요.

지도 변경 : 확대하려면 엑스 표시가 있는 녹색 버튼, 축소하려면 빼기 표시가 있는 녹색 버튼, 다음 페이지의 지도를 보려면 녹색 화살표를 클릭하세요.


METAR-TAF: